createdAt,value
2018-08-10T00:00:40.598Z,0.00
2018-08-10T00:01:40.585Z,0.00
2018-08-10T00:02:40.573Z,0.00
2018-08-10T00:03:40.557Z,0.00
2018-08-10T00:04:40.546Z,0.00
2018-08-10T00:05:40.533Z,0.00
2018-08-10T00:06:40.520Z,0.00
2018-08-10T00:07:40.505Z,0.00
2018-08-10T00:08:40.495Z,0.00
2018-08-10T00:09:40.484Z,0.00
2018-08-10T00:10:40.468Z,0.00
2018-08-10T00:11:40.457Z,0.00
2018-08-10T00:12:40.443Z,0.00
2018-08-10T00:13:40.433Z,0.00
2018-08-10T00:14:40.418Z,0.00
2018-08-10T00:15:40.409Z,0.00
2018-08-10T00:16:40.394Z,0.00
2018-08-10T00:17:40.385Z,0.00
2018-08-10T00:18:40.371Z,0.00
2018-08-10T00:19:40.354Z,0.00
2018-08-10T00:20:40.343Z,0.00
2018-08-10T00:21:40.329Z,0.00
2018-08-10T00:22:40.319Z,0.00
2018-08-10T00:23:40.308Z,0.00
2018-08-10T00:24:40.291Z,0.00
2018-08-10T00:25:40.282Z,0.00
2018-08-10T00:26:40.280Z,0.00
2018-08-10T00:27:40.249Z,0.00
2018-08-10T00:28:40.236Z,0.00
2018-08-10T00:29:40.225Z,0.00
2018-08-10T00:30:40.212Z,0.00
2018-08-10T00:31:40.198Z,0.00
2018-08-10T00:32:40.188Z,0.00
2018-08-10T00:33:40.172Z,0.00
2018-08-10T00:34:40.162Z,0.00
2018-08-10T00:35:40.150Z,0.00
2018-08-10T00:36:40.133Z,0.00
2018-08-10T00:37:40.123Z,0.00
2018-08-10T00:38:40.107Z,0.00
2018-08-10T00:39:40.094Z,0.00
2018-08-10T00:40:40.082Z,0.00
2018-08-10T00:41:40.067Z,0.00
2018-08-10T00:42:40.056Z,0.00
2018-08-10T00:43:40.042Z,0.00
2018-08-10T00:44:40.036Z,0.00
2018-08-10T00:45:40.019Z,0.00
2018-08-10T00:46:40.003Z,0.00
2018-08-10T00:47:39.988Z,0.00
2018-08-10T00:48:39.977Z,0.00
2018-08-10T00:49:39.963Z,0.00
2018-08-10T00:50:39.951Z,0.00
2018-08-10T00:51:39.940Z,0.00
2018-08-10T00:52:39.929Z,0.00
2018-08-10T00:53:39.915Z,0.00
2018-08-10T00:54:39.902Z,0.00
2018-08-10T00:55:39.888Z,0.00
2018-08-10T00:56:39.873Z,0.00
2018-08-10T00:57:39.860Z,0.00
2018-08-10T00:58:39.849Z,0.00
2018-08-10T00:59:39.835Z,0.00
2018-08-10T01:00:39.818Z,0.00
2018-08-10T01:01:39.810Z,0.00
2018-08-10T01:02:39.793Z,0.00
2018-08-10T01:03:39.782Z,0.00
2018-08-10T01:04:39.769Z,0.00
2018-08-10T01:05:39.754Z,0.00
2018-08-10T01:06:39.749Z,0.00
2018-08-10T01:07:39.727Z,0.00
2018-08-10T01:08:39.715Z,0.00
2018-08-10T01:09:39.704Z,0.00
2018-08-10T01:10:39.690Z,0.00
2018-08-10T01:11:39.675Z,0.00
2018-08-10T01:12:39.663Z,0.00
2018-08-10T01:13:39.649Z,0.00
2018-08-10T01:14:39.638Z,0.00
2018-08-10T01:15:39.622Z,0.00
2018-08-10T01:16:39.607Z,0.00
2018-08-10T01:17:39.597Z,0.00
2018-08-10T01:18:39.593Z,0.00
2018-08-10T01:19:39.572Z,0.00
2018-08-10T01:20:39.565Z,0.00
2018-08-10T01:21:39.547Z,0.00
2018-08-10T01:22:39.529Z,0.00
2018-08-10T01:23:39.516Z,0.00
2018-08-10T01:24:39.503Z,0.00
2018-08-10T01:25:39.491Z,0.00
2018-08-10T01:26:39.480Z,0.00
2018-08-10T01:27:39.460Z,0.00
2018-08-10T01:28:39.520Z,0.00
2018-08-10T01:29:39.434Z,0.00
2018-08-10T01:30:39.421Z,0.00
2018-08-10T01:31:39.411Z,0.00
2018-08-10T01:32:39.397Z,0.00
2018-08-10T01:33:39.397Z,0.00
2018-08-10T01:34:39.369Z,0.00
2018-08-10T01:35:39.353Z,0.00
2018-08-10T01:36:39.340Z,0.00
2018-08-10T01:37:39.325Z,0.00
2018-08-10T01:38:39.316Z,0.00
2018-08-10T01:39:39.296Z,0.00
2018-08-10T01:40:39.287Z,0.00
2018-08-10T01:41:39.276Z,0.00
2018-08-10T01:42:39.258Z,0.00
2018-08-10T01:43:39.244Z,0.00
2018-08-10T01:44:39.232Z,0.00
2018-08-10T01:45:39.217Z,0.00
2018-08-10T01:46:39.217Z,0.00
2018-08-10T01:47:39.192Z,0.00
2018-08-10T01:48:39.177Z,0.00
2018-08-10T01:49:39.168Z,0.00
2018-08-10T01:50:39.152Z,0.00
2018-08-10T01:51:39.138Z,0.00
2018-08-10T01:52:39.125Z,0.00
2018-08-10T01:53:39.109Z,0.00
2018-08-10T01:54:39.098Z,0.00
2018-08-10T01:55:39.086Z,0.00
2018-08-10T01:56:39.070Z,0.00
2018-08-10T01:57:39.061Z,0.00
2018-08-10T01:58:39.045Z,0.00
2018-08-10T01:59:39.027Z,0.00
2018-08-10T02:00:39.016Z,0.00
2018-08-10T02:01:39.003Z,0.00
2018-08-10T02:02:38.990Z,0.00
2018-08-10T02:03:38.978Z,0.00
2018-08-10T02:04:38.963Z,0.00
2018-08-10T02:05:38.950Z,0.00
2018-08-10T02:06:38.935Z,0.00
2018-08-10T02:07:38.927Z,0.00
2018-08-10T02:08:38.908Z,0.00
2018-08-10T02:09:38.896Z,0.00
2018-08-10T02:10:38.882Z,0.00
2018-08-10T02:11:38.874Z,0.00
2018-08-10T02:12:38.856Z,0.00
2018-08-10T02:13:38.845Z,0.00
2018-08-10T02:14:38.832Z,0.00
2018-08-10T02:15:38.815Z,0.00
2018-08-10T02:16:38.800Z,0.00
2018-08-10T02:17:38.787Z,0.00
2018-08-10T02:18:38.774Z,0.00
2018-08-10T02:19:38.761Z,0.00
2018-08-10T02:20:38.746Z,0.00
2018-08-10T02:21:38.742Z,0.00
2018-08-10T02:22:38.720Z,0.00
2018-08-10T02:23:38.708Z,0.00
2018-08-10T02:24:38.740Z,0.00
2018-08-10T02:25:38.683Z,0.00
2018-08-10T02:26:38.667Z,0.00
2018-08-10T02:27:38.654Z,0.00
2018-08-10T02:28:38.640Z,0.00
2018-08-10T02:29:38.634Z,0.00
2018-08-10T02:30:38.612Z,0.00
2018-08-10T02:31:38.611Z,0.00
2018-08-10T02:32:38.587Z,0.00
2018-08-10T02:33:38.571Z,0.00
2018-08-10T02:34:38.559Z,0.00
2018-08-10T02:35:38.545Z,0.00
2018-08-10T02:36:38.532Z,0.00
2018-08-10T02:37:38.522Z,0.00
2018-08-10T02:38:38.507Z,0.00
2018-08-10T02:39:38.492Z,0.00
2018-08-10T02:40:38.478Z,0.00
2018-08-10T02:41:38.464Z,0.00
2018-08-10T02:42:38.450Z,0.00
2018-08-10T02:43:38.441Z,0.00
2018-08-10T02:44:38.424Z,0.00
2018-08-10T02:45:38.410Z,0.00
2018-08-10T02:46:38.398Z,0.00
2018-08-10T02:47:38.382Z,0.00
2018-08-10T02:48:38.369Z,0.00
2018-08-10T02:49:38.355Z,0.00
2018-08-10T02:50:38.342Z,0.00
2018-08-10T02:51:38.331Z,0.00
2018-08-10T02:52:38.316Z,0.00
2018-08-10T02:53:38.302Z,0.00
2018-08-10T02:54:38.289Z,0.00
2018-08-10T02:55:38.280Z,0.00
2018-08-10T02:56:38.260Z,0.00
2018-08-10T02:57:38.303Z,0.00
2018-08-10T02:58:38.235Z,0.00
2018-08-10T02:59:38.219Z,0.00
2018-08-10T03:00:38.206Z,0.00
2018-08-10T03:01:38.193Z,0.00
2018-08-10T03:02:38.181Z,0.00
2018-08-10T03:03:38.166Z,0.00
2018-08-10T03:04:38.154Z,0.00
2018-08-10T03:05:38.142Z,0.00
2018-08-10T03:06:38.124Z,0.00
2018-08-10T03:07:38.111Z,0.00
2018-08-10T03:08:38.098Z,0.00
2018-08-10T03:09:38.083Z,0.00
2018-08-10T03:10:38.074Z,0.00
2018-08-10T03:11:38.060Z,0.00
2018-08-10T03:12:38.045Z,0.00
2018-08-10T03:13:38.030Z,0.00
2018-08-10T03:14:38.015Z,0.00
2018-08-10T03:15:38.000Z,0.00
2018-08-10T03:16:37.985Z,0.00
2018-08-10T03:17:37.972Z,0.00
2018-08-10T03:18:37.964Z,0.00
2018-08-10T03:19:37.947Z,0.00
2018-08-10T03:20:37.937Z,0.00
2018-08-10T03:21:37.919Z,0.00
2018-08-10T03:22:37.909Z,0.00
2018-08-10T03:23:37.896Z,0.00
2018-08-10T03:24:37.884Z,0.00
2018-08-10T03:25:37.865Z,0.00
2018-08-10T03:26:37.852Z,0.00
2018-08-10T03:27:37.836Z,0.00
2018-08-10T03:28:37.822Z,0.00
2018-08-10T03:29:37.808Z,0.00
2018-08-10T03:30:37.801Z,0.00
2018-08-10T03:31:37.783Z,0.00
2018-08-10T03:32:37.768Z,0.00
2018-08-10T03:33:37.756Z,0.00
2018-08-10T03:34:37.740Z,0.00
2018-08-10T03:35:37.725Z,0.00
2018-08-10T03:36:37.712Z,0.00
2018-08-10T03:37:37.701Z,0.00
2018-08-10T03:38:37.689Z,4.00
2018-08-10T03:39:37.670Z,0.00
2018-08-10T03:40:37.658Z,4.00
2018-08-10T03:41:37.644Z,4.00
2018-08-10T03:42:37.629Z,0.00
2018-08-10T03:43:37.617Z,4.00
2018-08-10T03:44:37.602Z,4.00
2018-08-10T03:45:37.590Z,8.00
2018-08-10T03:46:37.577Z,12.00
2018-08-10T03:47:37.559Z,12.00
2018-08-10T03:48:37.546Z,12.00
2018-08-10T03:49:37.532Z,16.00
2018-08-10T03:50:37.517Z,20.00
2018-08-10T03:51:37.502Z,20.00
2018-08-10T03:52:37.487Z,28.00
2018-08-10T03:53:37.475Z,28.00
2018-08-10T03:54:37.460Z,36.00
2018-08-10T03:55:37.449Z,36.00
2018-08-10T03:56:37.433Z,36.00
2018-08-10T03:57:37.419Z,44.00
2018-08-10T03:58:37.408Z,40.00
2018-08-10T03:59:37.390Z,44.00
2018-08-10T04:00:37.381Z,40.00
2018-08-10T04:01:37.363Z,48.00
2018-08-10T04:02:37.348Z,56.00
2018-08-10T04:03:37.333Z,64.00
2018-08-10T04:04:37.323Z,72.00
2018-08-10T04:05:37.308Z,80.00
2018-08-10T04:06:37.296Z,92.00
2018-08-10T04:07:37.281Z,104.00
2018-08-10T04:08:37.266Z,112.00
2018-08-10T04:09:37.259Z,120.00
2018-08-10T04:10:37.243Z,140.00
2018-08-10T04:11:37.223Z,152.00
2018-08-10T04:12:37.209Z,160.00
2018-08-10T04:13:37.196Z,160.00
2018-08-10T04:14:37.187Z,168.00
2018-08-10T04:15:37.169Z,180.00
2018-08-10T04:16:37.154Z,200.00
2018-08-10T04:17:37.138Z,220.00
2018-08-10T04:18:37.128Z,232.00
2018-08-10T04:19:37.112Z,252.00
2018-08-10T04:20:37.101Z,268.00
2018-08-10T04:21:37.084Z,288.00
2018-08-10T04:22:37.071Z,312.00
2018-08-10T04:23:37.056Z,336.00
2018-08-10T04:24:37.045Z,356.00
2018-08-10T04:25:37.031Z,380.00
2018-08-10T04:26:37.017Z,400.00
2018-08-10T04:27:36.999Z,424.00
2018-08-10T04:28:36.986Z,452.00
2018-08-10T04:29:37.050Z,468.00
2018-08-10T04:30:36.957Z,488.00
2018-08-10T04:31:36.951Z,512.00
2018-08-10T04:32:36.933Z,536.00
2018-08-10T04:33:36.914Z,560.00
2018-08-10T04:34:36.899Z,588.00
2018-08-10T04:35:36.884Z,604.00
2018-08-10T04:36:36.872Z,628.00
2018-08-10T04:37:36.859Z,660.00
2018-08-10T04:38:36.865Z,688.00
2018-08-10T04:39:36.828Z,716.00
2018-08-10T04:40:36.818Z,740.00
2018-08-10T04:41:36.810Z,756.00
2018-08-10T04:42:36.789Z,768.00
2018-08-10T04:43:36.777Z,776.00
2018-08-10T04:44:36.759Z,792.00
2018-08-10T04:45:36.750Z,820.00
2018-08-10T04:46:36.732Z,852.00
2018-08-10T04:47:36.717Z,904.00
2018-08-10T04:48:36.705Z,940.00
2018-08-10T04:49:36.690Z,992.00
2018-08-10T04:50:36.675Z,1028.00
2018-08-10T04:51:36.667Z,1060.00
2018-08-10T04:52:36.648Z,1084.00
2018-08-10T04:53:36.636Z,1112.00
2018-08-10T04:54:36.620Z,1152.00
2018-08-10T04:55:36.608Z,1176.00
2018-08-10T04:56:36.592Z,1196.00
2018-08-10T04:57:36.580Z,1224.00
2018-08-10T04:58:36.564Z,1248.00
2018-08-10T04:59:36.551Z,1264.00
2018-08-10T05:00:36.539Z,1304.00
2018-08-10T05:01:36.524Z,1324.00
2018-08-10T05:02:36.509Z,1360.00
2018-08-10T05:03:36.553Z,1380.00
2018-08-10T05:04:36.479Z,1404.00
2018-08-10T05:05:36.466Z,1432.00
2018-08-10T05:06:36.454Z,1464.00
2018-08-10T05:07:36.442Z,1492.00
2018-08-10T05:08:36.428Z,1524.00
2018-08-10T05:09:36.419Z,1552.00
2018-08-10T05:10:36.405Z,1576.00
2018-08-10T05:11:36.390Z,1604.00
2018-08-10T05:12:36.369Z,1632.00
2018-08-10T05:13:36.354Z,1648.00
2018-08-10T05:14:36.345Z,1672.00
2018-08-10T05:15:36.374Z,1704.00
2018-08-10T05:16:36.312Z,1736.00
2018-08-10T05:17:36.306Z,1748.00
2018-08-10T05:18:36.284Z,1768.00
2018-08-10T05:19:36.271Z,1804.00
2018-08-10T05:20:36.262Z,1844.00
2018-08-10T05:21:36.245Z,1860.00
2018-08-10T05:22:36.234Z,1880.00
2018-08-10T05:23:36.226Z,1920.00
2018-08-10T05:24:36.206Z,1940.00
2018-08-10T05:25:36.193Z,1984.00
2018-08-10T05:26:36.175Z,1988.00
2018-08-10T05:27:36.163Z,2000.00
2018-08-10T05:28:36.153Z,2052.00
2018-08-10T05:29:36.139Z,2076.00
2018-08-10T05:30:36.121Z,2124.00
2018-08-10T05:31:36.113Z,2156.00
2018-08-10T05:32:36.096Z,2188.00
2018-08-10T05:33:36.079Z,2224.00
2018-08-10T05:34:36.066Z,2236.00
2018-08-10T05:35:36.055Z,2284.00
2018-08-10T05:36:36.037Z,2296.00
2018-08-10T05:37:36.025Z,2332.00
2018-08-10T05:38:36.009Z,2392.00
2018-08-10T05:39:36.000Z,2356.00
2018-08-10T05:40:35.983Z,2420.00
2018-08-10T05:41:35.970Z,2464.00
2018-08-10T05:42:35.963Z,2448.00
2018-08-10T05:43:35.940Z,2512.00
2018-08-10T05:44:35.925Z,2556.00
2018-08-10T05:45:35.913Z,2556.00
2018-08-10T05:46:35.901Z,2584.00
2018-08-10T05:47:35.888Z,2620.00
2018-08-10T05:48:35.874Z,2636.00
2018-08-10T05:49:35.858Z,2660.00
2018-08-10T05:50:35.852Z,2700.00
2018-08-10T05:51:35.832Z,2712.00
2018-08-10T05:52:35.920Z,2756.00
2018-08-10T05:53:35.809Z,2772.00
2018-08-10T05:54:35.795Z,2804.00
2018-08-10T05:55:35.775Z,2808.00
2018-08-10T05:56:35.767Z,2840.00
2018-08-10T05:57:35.815Z,2900.00
2018-08-10T05:58:35.734Z,2932.00
2018-08-10T05:59:35.724Z,2916.00
2018-08-10T06:00:35.714Z,3040.00
2018-08-10T06:01:35.694Z,2980.00
2018-08-10T06:02:35.682Z,3020.00
2018-08-10T06:03:35.705Z,2996.00
2018-08-10T06:04:35.655Z,3032.00
2018-08-10T06:05:35.642Z,3052.00
2018-08-10T06:06:35.625Z,3088.00
2018-08-10T06:07:35.618Z,3104.00
2018-08-10T06:08:35.599Z,3108.00
2018-08-10T06:09:35.586Z,3156.00
2018-08-10T06:10:35.575Z,3180.00
2018-08-10T06:11:35.560Z,3212.00
2018-08-10T06:12:35.542Z,3236.00
2018-08-10T06:13:35.530Z,3268.00
2018-08-10T06:14:35.517Z,3408.00
2018-08-10T06:15:35.579Z,3356.00
2018-08-10T06:16:35.493Z,3360.00
2018-08-10T06:17:35.479Z,3396.00
2018-08-10T06:18:35.468Z,3472.00
2018-08-10T06:19:35.570Z,3488.00
2018-08-10T06:20:35.441Z,3524.00
2018-08-10T06:21:35.484Z,3664.00
2018-08-10T06:22:35.410Z,3552.00
2018-08-10T06:23:35.396Z,3556.00
2018-08-10T06:24:35.383Z,3588.00
2018-08-10T06:25:35.373Z,3624.00
2018-08-10T06:26:35.357Z,3664.00
2018-08-10T06:27:35.360Z,3684.00
2018-08-10T06:28:35.332Z,3676.00
2018-08-10T06:29:35.319Z,3732.00
2018-08-10T06:30:35.314Z,3796.00
2018-08-10T06:31:35.291Z,3752.00
2018-08-10T06:32:35.283Z,3800.00
2018-08-10T06:33:35.273Z,3804.00
2018-08-10T06:34:35.257Z,3844.00
2018-08-10T06:35:35.242Z,3892.00
2018-08-10T06:36:35.226Z,3920.00
2018-08-10T06:37:35.217Z,4008.00
2018-08-10T06:38:35.209Z,4084.00
2018-08-10T06:39:35.185Z,4060.00
2018-08-10T06:40:35.173Z,4096.00
2018-08-10T06:41:35.165Z,4152.00
2018-08-10T06:42:35.147Z,4144.00
2018-08-10T06:43:35.139Z,4124.00
2018-08-10T06:44:35.122Z,4168.00
2018-08-10T06:45:35.110Z,4200.00
2018-08-10T06:46:35.097Z,4288.00
2018-08-10T06:47:35.087Z,4360.00
2018-08-10T06:48:35.077Z,4428.00
2018-08-10T06:49:35.058Z,4576.00
2018-08-10T06:50:35.052Z,4668.00
2018-08-10T06:51:35.035Z,4628.00
2018-08-10T06:52:35.018Z,4752.00
2018-08-10T06:53:35.007Z,4744.00
2018-08-10T06:54:35.003Z,4756.00
2018-08-10T06:55:35.034Z,4832.00
2018-08-10T06:56:34.969Z,4868.00
2018-08-10T06:57:34.956Z,4924.00
2018-08-10T06:58:34.947Z,4932.00
2018-08-10T06:59:34.930Z,5048.00
2018-08-10T07:00:34.950Z,5664.00
2018-08-10T07:01:35.015Z,5980.00
2018-08-10T07:02:34.893Z,6180.00
2018-08-10T07:03:34.885Z,5840.00
2018-08-10T07:04:34.868Z,5868.00
2018-08-10T07:05:34.856Z,5720.00
2018-08-10T07:06:34.848Z,5880.00
2018-08-10T07:07:34.892Z,5416.00
2018-08-10T07:08:34.822Z,5520.00
2018-08-10T07:09:34.818Z,5676.00
2018-08-10T07:10:34.798Z,5960.00
2018-08-10T07:11:34.780Z,6036.00
2018-08-10T07:12:34.769Z,6136.00
2018-08-10T07:13:34.778Z,6236.00
2018-08-10T07:14:34.746Z,6304.00
2018-08-10T07:15:34.733Z,6120.00
2018-08-10T07:16:34.721Z,6156.00
2018-08-10T07:17:34.711Z,6280.00
2018-08-10T07:18:34.700Z,6820.00
2018-08-10T07:19:34.686Z,7368.00
2018-08-10T07:20:34.672Z,7780.00
2018-08-10T07:21:34.661Z,8364.00
2018-08-10T07:22:34.654Z,8552.00
2018-08-10T07:23:34.636Z,6484.00
2018-08-10T07:24:34.633Z,7248.00
2018-08-10T07:25:34.610Z,7652.00
2018-08-10T07:26:34.603Z,8148.00
2018-08-10T07:27:34.589Z,7160.00
2018-08-10T07:28:34.577Z,7264.00
2018-08-10T07:29:34.890Z,7040.00
2018-08-10T07:30:34.878Z,6744.00
2018-08-10T07:31:34.540Z,6952.00
2018-08-10T07:32:34.541Z,7076.00
2018-08-10T07:33:34.514Z,7288.00
2018-08-10T07:34:34.507Z,7492.00
2018-08-10T07:35:34.824Z,8312.00
2018-08-10T07:36:34.480Z,7424.00
2018-08-10T07:37:34.470Z,7376.00
2018-08-10T07:38:34.521Z,8044.00
2018-08-10T07:39:34.452Z,8424.00
2018-08-10T07:40:34.440Z,8772.00
2018-08-10T07:41:34.432Z,13456.00
2018-08-10T07:42:34.425Z,26656.00
2018-08-10T07:43:34.472Z,43392.00
2018-08-10T07:44:34.419Z,59808.00
2018-08-10T07:45:34.415Z,73120.00
2018-08-10T07:46:34.498Z,83040.00
2018-08-10T07:47:34.383Z,10104.00
2018-08-10T07:48:34.381Z,6956.00
2018-08-10T07:49:34.370Z,86016.00
2018-08-10T07:50:34.364Z,80192.00
2018-08-10T07:51:34.354Z,83360.00
2018-08-10T07:52:34.348Z,86528.00
2018-08-10T07:53:34.356Z,86656.00
2018-08-10T07:54:34.340Z,78112.00
2018-08-10T07:55:34.331Z,79168.00
2018-08-10T07:56:34.332Z,79552.00
2018-08-10T07:57:34.322Z,79584.00
2018-08-10T07:58:34.318Z,84160.00
2018-08-10T07:59:34.312Z,79744.00
2018-08-10T08:00:34.309Z,28672.00
2018-08-10T08:01:34.304Z,79936.00
2018-08-10T08:02:34.311Z,80096.00
2018-08-10T08:03:34.297Z,9420.00
2018-08-10T08:04:34.294Z,77184.00
2018-08-10T08:05:34.294Z,73312.00
2018-08-10T08:06:34.289Z,80448.00
2018-08-10T08:07:34.287Z,80320.00
2018-08-10T08:08:34.283Z,79872.00
2018-08-10T08:09:34.287Z,80320.00
2018-08-10T08:10:34.356Z,78848.00
2018-08-10T08:11:34.286Z,81280.00
2018-08-10T08:12:34.291Z,79872.00
2018-08-10T08:13:34.293Z,86048.00
2018-08-10T08:14:34.278Z,88064.00
2018-08-10T08:15:34.273Z,86144.00
2018-08-10T08:16:34.275Z,25088.00
2018-08-10T08:17:34.283Z,24128.00
2018-08-10T08:18:34.281Z,34336.00
2018-08-10T08:19:34.371Z,27232.00
2018-08-10T08:20:34.272Z,17280.00
2018-08-10T08:21:34.269Z,50912.00
2018-08-10T08:22:34.267Z,27584.00
2018-08-10T08:23:34.263Z,66528.00
2018-08-10T08:24:34.261Z,76480.00
2018-08-10T08:25:34.259Z,15328.00
2018-08-10T08:26:34.255Z,79872.00
2018-08-10T08:27:34.253Z,78272.00
2018-08-10T08:28:34.249Z,80448.00
2018-08-10T08:29:34.247Z,79168.00
2018-08-10T08:30:34.313Z,71520.00
2018-08-10T08:31:34.254Z,77536.00
2018-08-10T08:32:34.243Z,75168.00
2018-08-10T08:33:34.245Z,70336.00
2018-08-10T08:34:34.321Z,62528.00
2018-08-10T08:35:34.243Z,68480.00
2018-08-10T08:36:34.239Z,75360.00
2018-08-10T08:37:34.254Z,78944.00
2018-08-10T08:38:34.246Z,76832.00
2018-08-10T08:39:34.242Z,76192.00
2018-08-10T08:40:34.241Z,79040.00
2018-08-10T08:41:34.243Z,89984.00
2018-08-10T08:42:34.245Z,93952.00
2018-08-10T08:43:34.251Z,86432.00
2018-08-10T08:44:34.245Z,79168.00
2018-08-10T08:45:34.398Z,81312.00
2018-08-10T08:46:34.589Z,82048.00
2018-08-10T08:47:34.250Z,76800.00
2018-08-10T08:48:34.252Z,79776.00
2018-08-10T08:49:34.256Z,78336.00
2018-08-10T08:50:34.258Z,77472.00
2018-08-10T08:51:34.256Z,74400.00
2018-08-10T08:52:34.259Z,75424.00
2018-08-10T08:53:34.256Z,73056.00
2018-08-10T08:54:34.260Z,73984.00
2018-08-10T08:55:34.258Z,68640.00
2018-08-10T08:56:34.260Z,70464.00
2018-08-10T08:57:34.259Z,8184.00
2018-08-10T08:58:34.258Z,76544.00
2018-08-10T08:59:34.258Z,70848.00
2018-08-10T09:00:34.264Z,71808.00
2018-08-10T09:01:34.269Z,70752.00
2018-08-10T09:02:34.258Z,68000.00
2018-08-10T09:03:34.260Z,71040.00
2018-08-10T09:04:34.257Z,71424.00
2018-08-10T09:05:34.259Z,66912.00
2018-08-10T09:06:34.283Z,74368.00
2018-08-10T09:07:34.319Z,78272.00
2018-08-10T09:08:34.262Z,73024.00
2018-08-10T09:09:34.264Z,11244.00
2018-08-10T09:10:34.258Z,9212.00
2018-08-10T09:11:34.263Z,6684.00
2018-08-10T09:12:34.258Z,6244.00
2018-08-10T09:13:34.295Z,6508.00
2018-08-10T09:14:34.252Z,7588.00
2018-08-10T09:15:34.252Z,73952.00
2018-08-10T09:16:34.249Z,9364.00
2018-08-10T09:17:34.337Z,65056.00
2018-08-10T09:18:34.240Z,21536.00
2018-08-10T09:19:34.246Z,28704.00
2018-08-10T09:20:34.232Z,8924.00
2018-08-10T09:21:34.229Z,67200.00
2018-08-10T09:22:34.236Z,62720.00
2018-08-10T09:23:34.219Z,54848.00
2018-08-10T09:24:34.216Z,6080.00
2018-08-10T09:25:34.209Z,5328.00
2018-08-10T09:26:34.209Z,6544.00
2018-08-10T09:27:34.202Z,7764.00
2018-08-10T09:28:34.194Z,6320.00
2018-08-10T09:29:34.189Z,68192.00
2018-08-10T09:30:34.187Z,41664.00
2018-08-10T09:31:34.176Z,27392.00
2018-08-10T09:32:34.171Z,5952.00
2018-08-10T09:33:34.175Z,3532.00
2018-08-10T09:34:34.159Z,2920.00
2018-08-10T09:35:34.154Z,2540.00
2018-08-10T09:36:34.146Z,2348.00
2018-08-10T09:37:34.138Z,16992.00
2018-08-10T09:38:34.198Z,2972.00
2018-08-10T09:39:34.127Z,18400.00
2018-08-10T09:40:34.118Z,2848.00
2018-08-10T09:41:34.120Z,2468.00
2018-08-10T09:42:34.105Z,2324.00
2018-08-10T09:43:34.094Z,2128.00
2018-08-10T09:44:34.085Z,1980.00
2018-08-10T09:45:34.081Z,1908.00
2018-08-10T09:46:34.070Z,2180.00
2018-08-10T09:47:34.068Z,3108.00
2018-08-10T09:48:34.056Z,8800.00
2018-08-10T09:49:34.046Z,2188.00
2018-08-10T09:50:34.041Z,2352.00
2018-08-10T09:51:34.031Z,2296.00
2018-08-10T09:52:34.018Z,2216.00
2018-08-10T09:53:34.010Z,2620.00
2018-08-10T09:54:34.005Z,11212.00
2018-08-10T09:55:33.991Z,10696.00
2018-08-10T09:56:33.987Z,9632.00
2018-08-10T09:57:33.974Z,2896.00
2018-08-10T09:58:33.967Z,10468.00
2018-08-10T09:59:33.961Z,11056.00
2018-08-10T10:00:33.948Z,11036.00
2018-08-10T10:01:33.938Z,11448.00
2018-08-10T10:02:33.932Z,13488.00
2018-08-10T10:03:33.919Z,13700.00
2018-08-10T10:04:33.911Z,14244.00
2018-08-10T10:05:33.901Z,14364.00
2018-08-10T10:06:33.941Z,13972.00
2018-08-10T10:07:33.895Z,13484.00
2018-08-10T10:08:33.882Z,12280.00
2018-08-10T10:09:33.874Z,4712.00
2018-08-10T10:10:33.865Z,3420.00
2018-08-10T10:11:33.853Z,2924.00
2018-08-10T10:12:33.856Z,2748.00
2018-08-10T10:13:33.837Z,2772.00
2018-08-10T10:14:33.832Z,3180.00
2018-08-10T10:15:33.832Z,10208.00
2018-08-10T10:16:33.812Z,11720.00
2018-08-10T10:17:33.949Z,12288.00
2018-08-10T10:18:33.800Z,12236.00
2018-08-10T10:19:33.786Z,12344.00
2018-08-10T10:20:33.778Z,12276.00
2018-08-10T10:21:33.772Z,12148.00
2018-08-10T10:22:33.764Z,12004.00
2018-08-10T10:23:33.759Z,12080.00
2018-08-10T10:24:33.746Z,12196.00
2018-08-10T10:25:33.750Z,12544.00
2018-08-10T10:26:33.733Z,10604.00
2018-08-10T10:27:33.725Z,12124.00
2018-08-10T10:28:33.718Z,6256.00
2018-08-10T10:29:33.714Z,6540.00
2018-08-10T10:30:33.700Z,12596.00
2018-08-10T10:31:33.695Z,12868.00
2018-08-10T10:32:33.699Z,12264.00
2018-08-10T10:33:33.677Z,12216.00
2018-08-10T10:34:33.674Z,9708.00
2018-08-10T10:35:33.666Z,7240.00
2018-08-10T10:36:33.657Z,6448.00
2018-08-10T10:37:33.646Z,5836.00
2018-08-10T10:38:33.641Z,5656.00
2018-08-10T10:39:33.641Z,5400.00
2018-08-10T10:40:33.631Z,10692.00
2018-08-10T10:41:33.696Z,11424.00
2018-08-10T10:42:33.614Z,12084.00
2018-08-10T10:43:33.604Z,7728.00
2018-08-10T10:44:33.590Z,12144.00
2018-08-10T10:45:33.591Z,7528.00
2018-08-10T10:46:33.582Z,6428.00
2018-08-10T10:47:33.565Z,6424.00
2018-08-10T10:48:33.557Z,10928.00
2018-08-10T10:49:33.554Z,11436.00
2018-08-10T10:50:33.547Z,10352.00
2018-08-10T10:51:33.554Z,5560.00
2018-08-10T10:52:33.530Z,4972.00
2018-08-10T10:53:33.521Z,5168.00
2018-08-10T10:54:33.509Z,11164.00
2018-08-10T10:55:33.566Z,11168.00
2018-08-10T10:56:33.567Z,10720.00
2018-08-10T10:57:33.489Z,10500.00
2018-08-10T10:58:33.481Z,9288.00
2018-08-10T10:59:33.472Z,6352.00
2018-08-10T11:00:33.462Z,6272.00
2018-08-10T11:01:33.462Z,11684.00
2018-08-10T11:02:33.449Z,11820.00
2018-08-10T11:03:33.434Z,11416.00
2018-08-10T11:04:33.430Z,11096.00
2018-08-10T11:05:33.420Z,11248.00
2018-08-10T11:06:33.425Z,11048.00
2018-08-10T11:07:33.408Z,7200.00
2018-08-10T11:08:33.393Z,11076.00
2018-08-10T11:09:33.387Z,10860.00
2018-08-10T11:10:33.380Z,10740.00
2018-08-10T11:11:33.380Z,8432.00
2018-08-10T11:12:33.364Z,10864.00
2018-08-10T11:13:33.359Z,10880.00
2018-08-10T11:14:33.352Z,10960.00
2018-08-10T11:15:33.342Z,5740.00
2018-08-10T11:16:33.336Z,10536.00
2018-08-10T11:17:33.325Z,10540.00
2018-08-10T11:18:33.320Z,10264.00
2018-08-10T11:19:33.317Z,10728.00
2018-08-10T11:20:33.302Z,5288.00
2018-08-10T11:21:33.294Z,5220.00
2018-08-10T11:22:33.293Z,6632.00
2018-08-10T11:23:33.287Z,10660.00
2018-08-10T11:24:33.275Z,10684.00
2018-08-10T11:25:33.343Z,10672.00
2018-08-10T11:26:33.258Z,10360.00
2018-08-10T11:27:33.248Z,10460.00
2018-08-10T11:28:33.242Z,10852.00
2018-08-10T11:29:33.237Z,11044.00
2018-08-10T11:30:33.227Z,11208.00
2018-08-10T11:31:33.222Z,11364.00
2018-08-10T11:32:33.214Z,10988.00
2018-08-10T11:33:33.204Z,10856.00
2018-08-10T11:34:33.196Z,10828.00
2018-08-10T11:35:33.190Z,10280.00
2018-08-10T11:36:33.188Z,10296.00
2018-08-10T11:37:33.177Z,9796.00
2018-08-10T11:38:33.165Z,9904.00
2018-08-10T11:39:33.158Z,10164.00
2018-08-10T11:40:33.152Z,10536.00
2018-08-10T11:41:33.151Z,10792.00
2018-08-10T11:42:33.140Z,11052.00
2018-08-10T11:43:33.130Z,11348.00
2018-08-10T11:44:33.125Z,11396.00
2018-08-10T11:45:33.114Z,11480.00
2018-08-10T11:46:33.110Z,11364.00
2018-08-10T11:47:33.099Z,11120.00
2018-08-10T11:48:33.094Z,10872.00
2018-08-10T11:49:33.084Z,10776.00
2018-08-10T11:50:33.110Z,6284.00
2018-08-10T11:51:33.069Z,10440.00
2018-08-10T11:52:33.118Z,10716.00
2018-08-10T11:53:33.054Z,6856.00
2018-08-10T11:54:33.049Z,10204.00
2018-08-10T11:55:33.039Z,10128.00
2018-08-10T11:56:33.035Z,9968.00
2018-08-10T11:57:33.060Z,10380.00
2018-08-10T11:58:33.021Z,10664.00
2018-08-10T11:59:33.009Z,11240.00
2018-08-10T12:00:33.005Z,11724.00
2018-08-10T12:01:32.996Z,11916.00
2018-08-10T12:02:32.995Z,11716.00
2018-08-10T12:03:32.983Z,11680.00
2018-08-10T12:04:32.980Z,7740.00
2018-08-10T12:05:32.972Z,6784.00
2018-08-10T12:06:32.956Z,11064.00
2018-08-10T12:07:32.947Z,9084.00
2018-08-10T12:08:32.945Z,12228.00
2018-08-10T12:09:32.934Z,11888.00
2018-08-10T12:10:32.927Z,11500.00
2018-08-10T12:11:32.915Z,11196.00
2018-08-10T12:12:32.925Z,11048.00
2018-08-10T12:13:32.904Z,10852.00
2018-08-10T12:14:32.898Z,10808.00
2018-08-10T12:15:32.885Z,10912.00
2018-08-10T12:16:32.879Z,10604.00
2018-08-10T12:17:32.876Z,10648.00
2018-08-10T12:18:32.866Z,10604.00
2018-08-10T12:19:32.862Z,10560.00
2018-08-10T12:20:32.858Z,10592.00
2018-08-10T12:21:32.842Z,10420.00
2018-08-10T12:22:32.832Z,10952.00